Caseros, Argentina
Current Conditions -  °F | °C
As of 1:00 PM on Thursday 30 Oct 2014 (Local Time) from SABE Reporting Station
Broken Clouds Broken Clouds  
Wind Chill: 72°   Ceiling: 20000
Heat Index: 72°   Visibility: 6mi
Dew Point: 54°   Wind: 8mph
Humidity: 53%   Direction: 360°N
Pressure: 29.85"   Gusts: NA
Location:  34.6°S, 58.55°W
Report Text: SABE 301600Z 36007KT 9999 SCT045 BKN20022/12 Q1011
Loading
Personal Weather Stations






























Interactive Weather Map New forecast layout! Learn more

10-Day Weather Forecast

Advertisements
Track Severe Weather on mobile